Time;durP1;ratioP1;P1;durP2;ratioP2;P2;SDS_P1;SDS_P2;PMS_P1;PMS_P2;Temp;Humidity;BMP_temperature;BMP_pressure;BME280_temperature;BME280_humidity;BME280_pressure;Samples;Min_cycle;Max_cycle;Signal;HPM_P1;HPM_P2
2022/03/27 00:02:58;;;;;;;9.60;4.93;;;;;;;12.46;36.19;99828.66;4979568;28;20082;-52
2022/03/27 00:05:43;;;;;;;15.52;6.22;;;;;;;12.57;37.08;99834.13;4976364;28;20061;-54
2022/03/27 00:08:28;;;;;;;12.35;5.07;;;;;;;12.54;36.65;99834.31;4991256;28;20046;-54
2022/03/27 00:11:25;;;;;;;10.85;5.43;;;;;;;12.42;36.58;99832.44;4991336;28;20123;-52
2022/03/27 00:14:09;;;;;;;13.13;5.50;;;;;;;12.18;36.97;99843.44;4975777;28;20061;-53
2022/03/27 00:16:54;;;;;;;14.77;6.38;;;;;;;11.90;38.86;99837.97;4962992;28;20046;-54
2022/03/27 00:19:39;;;;;;;15.30;5.93;;;;;;;11.76;40.36;99846.63;4991216;28;20105;-48
2022/03/27 00:22:24;;;;;;;10.55;4.72;;;;;;;11.92;37.84;99841.34;4991405;28;20050;-53
2022/03/27 00:25:09;;;;;;;11.32;4.90;;;;;;;12.10;37.83;99841.25;4991289;28;20073;-53
2022/03/27 00:27:53;;;;;;;8.82;4.75;;;;;;;12.35;36.79;99842.44;4991154;28;20074;-51
2022/03/27 00:30:38;;;;;;;16.25;5.70;;;;;;;12.09;37.48;99842.19;4976462;28;20050;-55
2022/03/27 00:33:23;;;;;;;10.00;4.88;;;;;;;11.82;37.70;99840.16;4991129;28;20042;-55
2022/03/27 00:36:13;;;;;;;12.48;4.65;;;;;;;11.94;38.39;99836.00;4991899;28;20042;-50
2022/03/27 00:38:58;;;;;;;12.75;4.80;;;;;;;11.54;38.59;99834.69;4990986;28;20046;-55
2022/03/27 00:41:43;;;;;;;15.98;5.75;;;;;;;11.64;38.69;99842.03;4977822;28;20061;-51
2022/03/27 00:44:28;;;;;;;12.32;5.78;;;;;;;11.66;40.04;99834.94;4979908;28;20047;-54
2022/03/27 00:47:13;;;;;;;9.57;5.28;;;;;;;11.33;40.47;99832.34;4994247;28;20047;-52
2022/03/27 00:49:58;;;;;;;12.35;5.85;;;;;;;11.34;40.80;99841.06;4994459;28;20486;-52
2022/03/27 00:52:42;;;;;;;11.43;5.50;;;;;;;11.24;40.32;99839.84;4994431;28;20065;-55
2022/03/27 00:55:27;;;;;;;11.10;5.57;;;;;;;11.26;41.36;99830.97;4994363;28;20074;-53
2022/03/27 00:58:12;;;;;;;11.18;5.72;;;;;;;11.46;40.13;99831.66;4965904;28;20100;-53
2022/03/27 01:01:12;;;;;;;11.60;5.88;;;;;;;11.46;42.00;99829.88;4994180;28;20046;-53
2022/03/27 01:03:58;;;;;;;17.13;7.72;;;;;;;11.31;43.46;99828.09;4993979;28;20477;-54
2022/03/27 01:06:43;;;;;;;20.25;7.15;;;;;;;11.35;43.05;99824.38;4994083;28;20485;-52
2022/03/27 01:09:37;;;;;;;13.73;6.95;;;;;;;11.65;41.79;99823.59;4994316;28;20054;-51
2022/03/27 01:12:35;;;;;;;12.98;6.03;;;;;;;12.02;40.86;99825.06;4993999;28;20125;-54
2022/03/27 01:15:54;;;;;;;13.70;6.32;;;;;;;12.12;40.21;99823.63;4979137;28;20453;-53
2022/03/27 01:18:39;;;;;;;12.70;6.63;;;;;;;12.12;39.89;99828.03;4978814;28;20105;-52
2022/03/27 01:21:24;;;;;;;12.95;6.70;;;;;;;12.05;41.06;99835.38;4979642;28;20057;-53
2022/03/27 01:24:09;;;;;;;13.82;5.90;;;;;;;11.86;41.31;99832.97;4993868;28;20386;-50
2022/03/27 01:26:54;;;;;;;18.58;8.25;;;;;;;11.67;42.45;99836.66;4994076;28;20093;-51
2022/03/27 01:29:39;;;;;;;15.70;7.78;;;;;;;11.65;43.43;99835.88;4979396;28;20493;-54
2022/03/27 01:32:24;;;;;;;15.02;6.80;;;;;;;11.86;42.67;99838.22;4979082;28;20049;-52
2022/03/27 01:35:12;;;;;;;17.25;7.28;;;;;;;11.85;43.23;99837.38;4993847;28;20484;-52
2022/03/27 01:37:57;;;;;;;18.20;8.13;;;;;;;11.46;43.96;99831.66;4978957;28;20492;-52
2022/03/27 01:40:42;;;;;;;15.88;7.78;;;;;;;11.78;44.13;99838.66;4993262;28;20072;-54
2022/03/27 01:43:26;;;;;;;15.60;7.78;;;;;;;11.45;43.90;99843.94;4978866;28;20101;-53
2022/03/27 01:46:11;;;;;;;19.08;7.68;;;;;;;11.42;44.99;99838.00;4993522;28;20046;-53
2022/03/27 01:48:57;;;;;;;15.02;6.75;;;;;;;11.62;43.66;99849.19;4978410;28;20046;-53
2022/03/27 01:51:43;;;;;;;17.65;7.47;;;;;;;11.52;43.25;99848.84;4993174;28;20046;-54
2022/03/27 01:54:27;;;;;;;19.80;8.25;;;;;;;11.42;44.41;99851.97;4993339;28;20042;-52
2022/03/27 01:57:13;;;;;;;11.77;6.03;;;;;;;11.42;43.56;99843.25;4993297;28;20065;-50
2022/03/27 01:59:58;;;;;;;18.15;7.88;;;;;;;11.38;44.78;99844.34;4993066;28;20038;-49
2022/03/27 02:02:42;;;;;;;17.25;7.65;;;;;;;11.12;46.35;99842.22;4992987;28;20053;-53
2022/03/27 02:05:27;;;;;;;16.50;8.60;;;;;;;10.93;47.82;99847.59;4993360;28;20043;-54
2022/03/27 02:08:12;;;;;;;14.75;8.43;;;;;;;10.51;49.39;99849.75;4991689;28;20121;-54
2022/03/27 02:10:57;;;;;;;13.20;6.57;;;;;;;10.93;46.99;99843.22;4992861;28;20046;-53
2022/03/27 02:13:42;;;;;;;13.65;6.78;;;;;;;11.16;46.25;99845.53;4992669;28;20053;-53
2022/03/27 02:16:26;;;;;;;14.52;7.85;;;;;;;11.43;46.23;99856.28;4992663;28;20053;-53
2022/03/27 02:19:11;;;;;;;17.60;8.07;;;;;;;11.28;49.24;99852.72;4993216;28;20568;-52
2022/03/27 02:21:56;;;;;;;15.68;7.47;;;;;;;11.51;47.92;99855.00;4992327;28;20132;-52
2022/03/27 02:24:41;;;;;;;12.68;7.10;;;;;;;11.88;45.29;99858.19;4992594;28;20478;-53
2022/03/27 02:27:26;;;;;;;15.95;7.85;;;;;;;11.43;48.66;99860.69;4977734;28;20441;-55
2022/03/27 02:30:12;;;;;;;14.50;7.50;;;;;;;11.48;49.12;99863.91;4992478;28;20069;-55
2022/03/27 02:32:57;;;;;;;15.88;7.25;;;;;;;11.35;49.29;99866.34;4992530;28;20039;-54
2022/03/27 02:35:42;;;;;;;14.20;7.60;;;;;;;11.12;51.46;99862.34;4977776;28;20054;-50
2022/03/27 02:38:27;;;;;;;14.73;7.18;;;;;;;11.07;52.33;99867.81;4977608;28;20478;-54
2022/03/27 02:41:12;;;;;;;12.05;6.70;;;;;;;11.00;52.52;99869.91;4992458;28;20046;-53
2022/03/27 02:43:58;;;;;;;15.57;6.55;;;;;;;11.30;52.08;99886.72;4977632;28;20089;-54
2022/03/27 02:46:43;;;;;;;11.50;5.72;;;;;;;11.41;51.72;99889.63;4992177;28;20095;-53
2022/03/27 02:49:27;;;;;;;12.80;5.47;;;;;;;11.50;51.21;99888.28;4992200;28;20042;-55
2022/03/27 02:52:12;;;;;;;11.48;6.35;;;;;;;11.26;53.11;99895.72;4976866;28;20113;-53
2022/03/27 02:54:58;;;;;;;11.52;5.72;;;;;;;11.25;52.38;99894.84;4992069;28;20378;-53
2022/03/27 02:57:43;;;;;;;13.70;6.32;;;;;;;11.48;50.72;99903.25;4991898;28;20527;-54
2022/03/27 03:00:28;;;;;;;9.07;5.20;;;;;;;11.63;51.21;99904.22;4991918;28;20039;-53
2022/03/27 03:03:13;;;;;;;11.35;5.60;;;;;;;11.61;50.48;99890.31;4992207;28;20050;-54
2022/03/27 03:05:59;;;;;;;10.05;5.63;;;;;;;11.20;52.44;99897.72;4991710;28;20046;-55
2022/03/27 03:08:43;;;;;;;14.00;6.05;;;;;;;11.13;55.24;99912.06;4992133;28;20081;-56
2022/03/27 03:11:28;;;;;;;8.60;5.47;;;;;;;11.28;54.36;99907.81;4992192;28;20057;-53
2022/03/27 03:14:13;;;;;;;12.18;5.05;;;;;;;11.17;53.56;99911.00;4991879;28;20358;-53
2022/03/27 03:16:59;;;;;;;8.45;4.70;;;;;;;11.33;54.67;99912.81;4977331;28;20520;-54
2022/03/27 03:19:44;;;;;;;9.70;4.78;;;;;;;11.25;50.10;99912.34;4991896;28;20049;-52
2022/03/27 03:22:29;;;;;;;9.82;5.35;;;;;;;11.24;53.94;99919.41;4992081;28;20062;-52
2022/03/27 03:25:14;;;;;;;6.95;4.20;;;;;;;11.32;53.92;99908.50;4991759;28;20046;-52
2022/03/27 03:27:59;;;;;;;10.57;4.45;;;;;;;11.17;52.93;99916.25;4977264;28;20149;-52
2022/03/27 03:30:43;;;;;;;6.95;4.10;;;;;;;11.03;53.87;99922.19;4991956;28;20043;-54
2022/03/27 03:33:28;;;;;;;11.50;4.88;;;;;;;11.05;55.46;99909.88;4974446;28;20501;-53
2022/03/27 03:36:12;;;;;;;7.88;4.78;;;;;;;10.79;55.25;99919.94;4991685;28;20104;-54
2022/03/27 03:38:57;;;;;;;6.53;4.05;;;;;;;11.24;52.36;99934.28;4976972;28;20042;-53
2022/03/27 03:41:42;;;;;;;6.65;3.65;;;;;;;11.23;51.41;99941.28;4991710;28;20419;-53
2022/03/27 03:44:27;;;;;;;8.93;4.18;;;;;;;11.27;53.29;99949.84;4991846;28;20050;-54
2022/03/27 03:47:12;;;;;;;11.23;4.82;;;;;;;11.30;51.60;99950.53;4991825;28;20050;-53
2022/03/27 03:49:56;;;;;;;10.38;4.38;;;;;;;11.50;52.02;99939.91;4977144;28;20054;-53
2022/03/27 03:52:41;;;;;;;8.25;4.45;;;;;;;11.49;50.72;99946.09;4976924;28;20486;-52
2022/03/27 03:55:27;;;;;;;5.85;3.40;;;;;;;11.43;49.90;99947.25;4963196;28;20170;-52
2022/03/27 03:58:11;;;;;;;9.23;4.78;;;;;;;11.66;51.40;99955.69;4976786;28;20659;-53
2022/03/27 04:00:56;;;;;;;6.72;4.13;;;;;;;11.83;47.04;99963.47;4991446;28;20081;-57
2022/03/27 04:03:40;;;;;;;7.47;3.40;;;;;;;12.06;46.63;99960.53;4976733;28;20070;-51
2022/03/27 04:06:26;;;;;;;8.35;4.32;;;;;;;12.29;47.54;99967.13;4991498;28;20053;-52
2022/03/27 04:09:10;;;;;;;9.27;4.97;;;;;;;11.95;50.93;99961.97;4991320;28;20120;-49
2022/03/27 04:11:56;;;;;;;8.57;4.28;;;;;;;11.75;51.28;99957.78;4991359;28;20050;-48
2022/03/27 04:14:41;;;;;;;7.07;3.60;;;;;;;11.67;47.73;99960.03;4976754;28;20061;-54
2022/03/27 04:17:26;;;;;;;7.07;4.07;;;;;;;11.63;50.56;99961.09;4993937;28;20047;-51
2022/03/27 04:20:14;;;;;;;6.57;3.67;;;;;;;11.62;50.62;99967.28;4980264;28;20047;-52
2022/03/27 04:22:59;;;;;;;4.57;2.83;;;;;;;11.69;48.08;99966.00;4994983;28;20201;-53
2022/03/27 04:25:44;;;;;;;9.23;4.10;;;;;;;11.36;50.40;99980.03;4994724;28;20584;-50
2022/03/27 04:28:29;;;;;;;7.65;4.00;;;;;;;11.23;52.64;99974.56;4994976;28;20489;-51
2022/03/27 04:31:14;;;;;;;5.75;3.55;;;;;;;11.31;50.53;99982.88;4994973;28;20104;-50
2022/03/27 04:33:59;;;;;;;7.95;4.05;;;;;;;11.20;52.49;99981.66;4994571;28;20046;-53
2022/03/27 04:36:44;;;;;;;5.85;3.03;;;;;;;11.39;49.27;99982.47;4979969;28;20046;-53
2022/03/27 04:39:29;;;;;;;6.32;3.33;;;;;;;11.44;49.76;99981.28;4994643;28;20598;-52
2022/03/27 04:42:13;;;;;;;5.15;2.78;;;;;;;11.24;49.76;99973.63;4994519;28;20049;-53
2022/03/27 04:44:58;;;;;;;5.82;3.58;;;;;;;11.43;50.52;99984.84;4994621;28;20062;-50
2022/03/27 04:47:43;;;;;;;5.78;3.30;;;;;;;11.05;51.11;99985.91;4994470;28;20108;-50
2022/03/27 04:50:27;;;;;;;5.75;3.45;;;;;;;10.98;51.82;100000.28;4994335;28;20046;-53
2022/03/27 04:53:12;;;;;;;7.25;3.72;;;;;;;10.85;51.72;100000.03;4994294;28;20047;-54
2022/03/27 04:55:57;;;;;;;8.35;3.55;;;;;;;11.06;50.88;100003.38;4994052;28;20049;-54
2022/03/27 04:58:42;;;;;;;6.30;3.00;;;;;;;11.03;51.68;100008.72;4992683;28;20070;-53
2022/03/27 05:01:26;;;;;;;7.85;3.92;;;;;;;10.60;54.42;100014.34;4994102;28;20054;-53
2022/03/27 05:04:11;;;;;;;6.03;3.53;;;;;;;10.72;53.13;100020.78;4993861;28;20050;-51
2022/03/27 05:06:56;;;;;;;4.43;2.40;;;;;;;11.23;49.89;100016.53;4993616;28;20489;-55
2022/03/27 05:09:40;;;;;;;7.75;3.65;;;;;;;11.56;53.22;100023.56;4993882;28;20061;-54
2022/03/27 05:12:25;;;;;;;3.75;2.20;;;;;;;11.40;50.92;100031.38;4994000;28;20042;-55
2022/03/27 05:15:10;;;;;;;4.45;2.33;;;;;;;10.89;53.73;100022.56;4993977;28;20121;-52
2022/03/27 05:17:58;;;;;;;4.70;2.78;;;;;;;10.75;51.73;100030.25;4978811;28;20034;-55
2022/03/27 05:20:43;;;;;;;7.80;3.58;;;;;;;11.52;50.49;100032.53;4993339;28;20078;-53
2022/03/27 05:23:31;;;;;;;5.75;3.38;;;;;;;11.53;50.84;100034.22;4993505;28;20050;-54
2022/03/27 05:26:15;;;;;;;4.03;2.28;;;;;;;11.30;51.16;100036.25;4993466;28;20038;-53
2022/03/27 05:29:00;;;;;;;5.93;3.38;;;;;;;11.49;51.13;100036.16;4993226;28;20149;-54
2022/03/27 05:31:45;;;;;;;4.07;2.35;;;;;;;11.11;51.54;100057.34;4993551;28;20046;-55
2022/03/27 05:34:29;;;;;;;7.28;3.10;;;;;;;11.10;52.35;100056.47;4976510;28;20547;-55
2022/03/27 05:37:14;;;;;;;7.70;3.45;;;;;;;10.89;53.15;100053.16;4992485;28;20069;-52
2022/03/27 05:39:59;;;;;;;4.25;2.58;;;;;;;10.96;52.89;100065.03;4993307;28;20049;-53
2022/03/27 05:42:44;;;;;;;6.30;3.03;;;;;;;10.75;53.86;100062.56;4993949;28;20545;-52
2022/03/27 05:45:29;;;;;;;7.30;3.45;;;;;;;10.85;53.99;100060.34;4993668;28;20039;-52
2022/03/27 05:48:14;;;;;;;5.18;3.28;;;;;;;10.94;53.92;100065.13;4993246;28;20051;-52
2022/03/27 05:50:58;;;;;;;6.82;3.55;;;;;;;10.75;54.22;100057.31;4993190;28;20418;-50
2022/03/27 05:53:43;;;;;;;5.13;2.85;;;;;;;10.70;53.05;100068.03;4993172;28;20042;-51
2022/03/27 05:56:28;;;;;;;6.28;3.22;;;;;;;10.78;53.85;100061.56;4993045;28;20042;-54
2022/03/27 05:59:13;;;;;;;6.38;3.63;;;;;;;10.72;52.06;100065.34;4978504;28;20050;-55
2022/03/27 06:01:58;;;;;;;6.97;3.60;;;;;;;10.92;52.76;100066.97;4992704;28;20066;-52
2022/03/27 06:04:43;;;;;;;6.50;4.60;;;;;;;11.04;53.50;100073.38;4992943;28;20070;-55
2022/03/27 06:07:28;;;;;;;5.22;3.38;;;;;;;11.18;52.02;100069.22;4993018;28;20560;-53
2022/03/27 06:10:14;;;;;;;6.53;3.20;;;;;;;11.34;50.09;100070.13;4991901;28;20087;-51
2022/03/27 06:13:00;;;;;;;6.75;3.72;;;;;;;11.74;49.99;100057.63;4978382;28;20046;-52
2022/03/27 06:15:45;;;;;;;3.60;2.53;;;;;;;12.23;47.83;100063.84;4992867;28;20046;-54
2022/03/27 06:18:29;;;;;;;7.03;3.45;;;;;;;12.25;48.43;100065.47;4992632;28;20042;-52
2022/03/27 06:21:15;;;;;;;5.68;3.15;;;;;;;11.99;48.77;100078.19;4993277;28;20081;-51
2022/03/27 06:24:00;;;;;;;5.18;2.90;;;;;;;12.26;47.56;100077.66;4992825;28;20039;-57
2022/03/27 06:26:45;;;;;;;10.10;5.18;;;;;;;12.28;49.05;100075.81;4992976;28;20042;-53
2022/03/27 06:29:29;;;;;;;7.20;4.25;;;;;;;12.13;48.35;100087.97;4992591;28;20046;-52
2022/03/27 06:32:15;;;;;;;13.20;5.22;;;;;;;12.77;47.46;100097.66;4977403;28;20054;-54
2022/03/27 06:34:59;;;;;;;6.63;3.40;;;;;;;12.62;47.25;100083.59;4992546;28;20058;-49
2022/03/27 06:37:44;;;;;;;11.10;5.35;;;;;;;11.88;49.57;100093.69;4992282;28;20573;-52
2022/03/27 06:40:29;;;;;;;6.53;3.85;;;;;;;12.37;47.65;100089.38;4976912;28;20042;-52
2022/03/27 06:43:13;;;;;;;5.82;3.92;;;;;;;12.90;45.94;100089.91;4963937;28;20095;-51
2022/03/27 06:45:58;;;;;;;5.40;3.08;;;;;;;13.16;45.28;100102.47;4991870;28;20142;-51
2022/03/27 06:48:48;;;;;;;5.95;3.47;;;;;;;12.96;45.35;100101.03;4977433;28;20053;-53
2022/03/27 06:51:34;;;;;;;6.15;3.95;;;;;;;12.89;46.72;100103.97;4991067;28;20053;-50
2022/03/27 06:54:20;;;;;;;6.13;3.92;;;;;;;12.23;47.85;100103.25;4992184;28;20489;-55
2022/03/27 06:57:05;;;;;;;6.03;3.05;;;;;;;12.21;47.94;100105.13;4992120;28;20058;-53
2022/03/27 07:03:02;;;;;;;6.93;4.15;;;;;;;12.47;47.67;100100.22;4991720;28;20069;-54
2022/03/27 07:05:46;;;;;;;5.82;3.25;;;;;;;12.51;46.91;100110.47;4991811;28;20560;-55
2022/03/27 07:08:31;;;;;;;5.57;2.28;;;;;;;13.32;44.84;100115.59;4977456;28;20046;-54
2022/03/27 07:11:15;;;;;;;6.97;4.00;;;;;;;13.57;44.51;100121.22;4977306;28;20066;-54
2022/03/27 07:14:00;;;;;;;9.20;4.78;;;;;;;13.72;44.47;100122.94;4991613;28;20046;-51
2022/03/27 07:16:45;;;;;;;7.88;4.93;;;;;;;14.27;43.04;100117.00;4991641;28;20118;-55
2022/03/27 07:19:30;;;;;;;8.45;4.97;;;;;;;13.78;43.84;100119.06;4976887;28;20390;-52
2022/03/27 07:22:15;;;;;;;8.05;4.57;;;;;;;13.13;45.66;100119.31;4991819;28;20093;-54
2022/03/27 07:25:00;;;;;;;10.68;5.43;;;;;;;13.00;46.29;100116.53;4991810;28;20046;-55
2022/03/27 07:27:45;;;;;;;8.48;5.40;;;;;;;12.42;46.76;100119.69;4991538;28;20058;-53
2022/03/27 07:30:30;;;;;;;11.23;5.60;;;;;;;11.78;48.02;100124.81;4976528;28;20046;-53
2022/03/27 07:33:16;;;;;;;10.30;5.13;;;;;;;12.00;47.83;100131.56;4991535;28;20061;-51
2022/03/27 07:36:01;;;;;;;9.65;4.60;;;;;;;11.75;48.58;100131.06;4991056;28;20050;-52
2022/03/27 07:38:46;;;;;;;8.27;4.70;;;;;;;11.24;49.46;100125.78;4991219;28;20042;-53
2022/03/27 07:41:31;;;;;;;10.00;4.53;;;;;;;11.88;48.05;100131.28;4991567;28;20042;-54
2022/03/27 07:44:16;;;;;;;7.70;4.35;;;;;;;12.17;47.64;100121.06;4991515;28;20486;-56
2022/03/27 07:47:01;;;;;;;11.25;5.22;;;;;;;12.78;45.10;100124.78;4976541;28;20054;-50
2022/03/27 07:49:46;;;;;;;12.18;4.90;;;;;;;13.42;43.58;100132.53;4991327;28;20046;-55
2022/03/27 07:52:30;;;;;;;5.40;3.70;;;;;;;14.21;41.97;100128.78;4995578;28;20042;-54
2022/03/27 07:55:16;;;;;;;7.10;4.40;;;;;;;13.91;41.78;100140.25;4995312;28;20049;-54
2022/03/27 07:58:02;;;;;;;6.90;4.30;;;;;;;14.53;40.62;100136.44;4964260;28;20062;-55
2022/03/27 08:00:47;;;;;;;6.80;3.95;;;;;;;14.07;41.09;100131.44;4995086;28;20054;-56
2022/03/27 08:03:33;;;;;;;6.75;3.90;;;;;;;14.77;40.16;100134.97;4995088;28;20076;-54
2022/03/27 08:06:18;;;;;;;8.07;4.32;;;;;;;16.17;36.80;100124.00;4979953;28;20057;-55
2022/03/27 08:09:05;;;;;;;7.05;3.47;;;;;;;16.97;36.02;100130.59;4995272;28;20475;-56
2022/03/27 08:11:50;;;;;;;4.88;2.42;;;;;;;16.88;34.79;100123.34;4995127;28;20041;-56
2022/03/27 08:14:36;;;;;;;6.70;3.63;;;;;;;15.68;35.60;100124.66;4995090;28;20058;-53
2022/03/27 08:17:23;;;;;;;4.32;2.55;;;;;;;16.38;34.90;100114.56;4994980;28;20042;-53
2022/03/27 08:20:10;;;;;;;5.90;2.65;;;;;;;16.65;34.59;100112.66;4980164;28;20490;-54
2022/03/27 08:22:55;;;;;;;5.25;3.28;;;;;;;17.36;33.62;100117.16;4994758;28;20046;-55
2022/03/27 08:28:44;;;;;;;6.30;3.13;;;;;;;17.92;34.12;100112.06;4994388;28;20629;-54
2022/03/27 08:31:32;;;;;;;5.28;3.03;;;;;;;18.36;32.46;100116.63;4980010;28;20491;-54
2022/03/27 08:34:18;;;;;;;5.18;3.70;;;;;;;16.57;35.65;100115.88;4994701;28;20053;-53
2022/03/27 08:37:05;;;;;;;6.93;3.85;;;;;;;16.35;35.73;100121.84;4980151;28;20050;-53
2022/03/27 08:39:52;;;;;;;5.05;3.15;;;;;;;16.56;37.13;100115.97;4994346;28;20485;-55
2022/03/27 08:42:38;;;;;;;5.63;3.10;;;;;;;18.19;33.95;100129.47;4994573;28;20547;-53
2022/03/27 08:45:23;;;;;;;5.00;2.97;;;;;;;18.12;33.40;100116.75;4966076;28;20486;-56
2022/03/27 08:48:08;;;;;;;6.57;3.55;;;;;;;17.33;34.22;100116.56;4979496;28;20046;-54
2022/03/27 08:51:07;;;;;;;5.43;3.38;;;;;;;17.95;34.12;100124.25;4994401;28;20042;-56
2022/03/27 08:54:21;;;;;;;6.15;2.80;;;;;;;18.44;33.26;100130.13;4993977;28;20073;-54
2022/03/27 08:57:09;;;;;;;7.63;3.70;;;;;;;19.72;30.81;100139.28;4993961;28;20053;-54
2022/03/27 08:59:54;;;;;;;6.13;3.83;;;;;;;18.14;32.53;100125.47;4993827;28;20046;-53
2022/03/27 09:02:40;;;;;;;5.30;2.47;;;;;;;18.92;33.39;100127.22;4978275;28;20058;-56
2022/03/27 09:05:26;;;;;;;4.35;2.13;;;;;;;21.10;30.90;100129.06;4979150;28;20096;-55
2022/03/27 09:08:12;;;;;;;6.18;3.53;;;;;;;19.44;30.44;100129.19;4994609;28;20050;-55
2022/03/27 09:10:56;;;;;;;4.65;3.30;;;;;;;18.54;33.27;100135.53;4979157;28;20070;-51
2022/03/27 09:13:46;;;;;;;5.03;2.28;;;;;;;19.13;32.22;100126.47;4994317;28;20100;-54
2022/03/27 09:17:00;;;;;;;7.28;4.18;;;;;;;19.60;31.68;100126.06;4978892;28;20042;-54
2022/03/27 09:19:51;;;;;;;7.30;4.10;;;;;;;20.36;29.22;100128.50;4993331;28;20489;-53
2022/03/27 09:22:36;;;;;;;;;;;;;;;21.41;29.04;100125.38;4979209;28;20066;-50
2022/03/27 09:25:20;;;;;;;4.03;2.92;;;;;;;21.75;28.94;100116.88;4993626;28;19929;-50
2022/03/27 09:28:05;;;;;;;6.10;3.40;;;;;;;18.39;32.64;100121.72;4978714;28;20050;-55
2022/03/27 09:30:50;;;;;;;5.05;3.53;;;;;;;19.97;32.08;100126.53;4992398;28;20555;-53
2022/03/27 09:33:38;;;;;;;5.07;3.13;;;;;;;21.56;29.25;100123.09;4993815;28;20050;-54
2022/03/27 09:36:29;;;;;;;6.18;2.95;;;;;;;22.05;27.96;100127.44;4993544;28;20562;-56
2022/03/27 09:39:22;;;;;;;5.63;3.88;;;;;;;23.36;26.62;100113.88;4978674;28;20347;-54
2022/03/27 09:42:16;;;;;;;5.22;3.45;;;;;;;23.23;27.02;100112.47;4992755;28;20073;-55
2022/03/27 09:45:21;;;;;;;4.50;2.97;;;;;;;24.48;25.80;100109.63;4978266;28;20089;-54
2022/03/27 09:48:08;;;;;;;7.65;4.13;;;;;;;22.67;27.17;100117.16;4978051;28;20100;-54
2022/03/27 09:50:57;;;;;;;4.72;3.42;;;;;;;20.44;30.55;100112.72;4992926;28;20046;-50
2022/03/27 09:53:41;;;;;;;4.57;3.13;;;;;;;20.61;29.79;100111.22;4992918;28;20054;-54
2022/03/27 09:56:29;;;;;;;6.07;3.90;;;;;;;22.06;27.46;100099.78;4993359;28;20050;-54
2022/03/27 09:59:32;;;;;;;6.22;4.30;;;;;;;21.56;28.84;100111.59;4978129;28;20061;-54
2022/03/27 10:02:23;;;;;;;7.32;4.47;;;;;;;20.39;30.77;100114.94;4993139;28;20078;-55
2022/03/27 10:05:10;;;;;;;8.50;5.15;;;;;;;20.13;29.88;100115.44;4992807;28;20077;-56
2022/03/27 10:07:56;;;;;;;4.53;3.22;;;;;;;21.81;30.63;100101.28;4978182;28;20418;-53
2022/03/27 10:10:41;;;;;;;6.72;4.40;;;;;;;20.41;29.66;100105.00;4992829;28;20050;-53
2022/03/27 10:13:29;;;;;;;10.20;5.13;;;;;;;19.07;31.95;100096.78;4977526;28;20048;-55
2022/03/27 10:16:15;;;;;;;4.22;3.00;;;;;;;21.88;29.56;100105.91;4992724;28;20046;-54
2022/03/27 10:19:03;;;;;;;5.15;3.40;;;;;;;23.61;26.37;100090.00;4992171;28;20483;-55
2022/03/27 10:21:52;;;;;;;5.65;3.45;;;;;;;23.05;25.58;100080.41;4992510;28;20042;-54
2022/03/27 10:24:39;;;;;;;4.38;3.53;;;;;;;19.91;30.35;100090.69;4945000;28;20102;-54
2022/03/27 10:27:24;;;;;;;3.72;3.08;;;;;;;22.03;27.37;100092.91;4973397;28;20046;-54
2022/03/27 10:30:18;;;;;;;5.88;3.00;;;;;;;23.26;26.51;100088.09;4960294;28;20553;-54
2022/03/27 10:33:03;;;;;;;4.85;3.20;;;;;;;24.59;25.80;100090.56;4973543;28;20124;-54
2022/03/27 10:35:51;;;;;;;4.57;2.50;;;;;;;26.34;23.99;100092.09;4958570;28;20101;-54
2022/03/27 10:39:04;;;;;;;4.18;2.63;;;;;;;24.90;23.52;100078.38;4972944;28;20750;-53
2022/03/27 10:42:11;;;;;;;6.53;3.08;;;;;;;20.87;30.26;100086.72;4972613;28;20074;-52
2022/03/27 10:45:16;;;;;;;6.93;2.83;;;;;;;20.30;29.20;100082.84;4972393;28;20050;-54
2022/03/27 10:48:16;;;;;;;4.63;3.38;;;;;;;19.10;30.70;100082.41;4972207;28;20395;-55
2022/03/27 10:51:00;;;;;;;7.28;3.53;;;;;;;19.56;29.89;100092.78;4957730;28;20043;-55
2022/03/27 10:54:19;;;;;;;4.15;2.50;;;;;;;22.17;27.57;100093.41;4972412;28;20402;-56
2022/03/27 10:57:04;;;;;;;4.30;2.95;;;;;;;22.92;26.13;100079.97;4972480;28;20502;-53
2022/03/27 10:59:48;;;;;;;4.38;2.72;;;;;;;24.90;24.54;100078.38;4972390;28;20497;-56
2022/03/27 11:02:49;;;;;;;5.28;2.70;;;;;;;23.10;26.01;100071.94;4972773;28;20059;-51
2022/03/27 11:05:36;;;;;;;4.72;2.95;;;;;;;22.68;25.51;100068.09;4977045;28;20046;-54
2022/03/27 11:08:22;;;;;;;6.38;3.45;;;;;;;20.88;27.41;100079.53;4992041;28;20121;-56
2022/03/27 11:11:07;;;;;;;6.05;3.38;;;;;;;20.70;28.41;100079.41;4977373;28;20146;-52
2022/03/27 11:13:51;;;;;;;6.35;2.72;;;;;;;23.05;25.60;100069.72;4974301;28;20058;-54
2022/03/27 11:17:10;;;;;;;5.07;2.60;;;;;;;21.38;28.03;100075.84;4991469;28;20057;-56
2022/03/27 11:19:54;;;;;;;6.72;2.75;;;;;;;21.70;26.47;100067.63;4974514;28;20065;-54
2022/03/27 11:22:55;;;;;;;4.75;2.67;;;;;;;22.95;25.98;100060.97;4991595;28;20158;-49
2022/03/27 11:25:44;;;;;;;3.95;2.78;;;;;;;22.00;26.33;100063.88;4991487;28;20050;-53
2022/03/27 11:28:52;;;;;;;4.50;2.67;;;;;;;22.12;26.39;100061.00;4991663;28;20069;-54
2022/03/27 11:31:38;;;;;;;5.43;2.53;;;;;;;25.22;24.07;100052.53;4991860;28;20248;-53
2022/03/27 11:34:26;;;;;;;3.65;2.28;;;;;;;26.83;22.31;100044.41;4990873;28;20046;-55
2022/03/27 11:37:12;;;;;;;3.80;2.67;;;;;;;25.52;22.28;100041.25;4991482;28;20051;-51
2022/03/27 11:39:57;;;;;;;3.72;2.22;;;;;;;25.88;22.20;100047.16;4991420;28;20046;-53
2022/03/27 11:42:42;;;;;;;4.07;2.25;;;;;;;26.42;22.14;100026.75;4991670;28;20043;-52
2022/03/27 11:45:37;;;;;;;3.05;2.10;;;;;;;28.81;19.63;100024.28;4963556;28;20105;-51
2022/03/27 11:48:21;;;;;;;4.85;2.05;;;;;;;28.02;20.01;100028.47;4991302;28;20054;-51
2022/03/27 11:51:15;;;;;;;4.20;2.53;;;;;;;26.80;21.08;100029.44;4991662;28;20042;-49
2022/03/27 11:54:00;;;;;;;5.53;2.53;;;;;;;26.64;21.37;100030.44;4991257;28;20436;-53
2022/03/27 11:57:00;;;;;;;4.07;2.67;;;;;;;26.66;20.59;100022.19;4991446;28;20047;-55
2022/03/27 11:59:50;;;;;;;5.38;2.63;;;;;;;25.33;23.30;100031.75;4991220;28;20046;-55
2022/03/27 12:02:41;;;;;;;3.63;2.60;;;;;;;26.60;21.61;100013.00;4991729;28;20065;-53
2022/03/27 12:05:33;;;;;;;;;;;;;;;25.01;23.40;100009.34;4977391;28;20050;-57
2022/03/27 12:08:18;;;;;;;4.78;2.63;;;;;;;23.45;25.38;100013.22;4976659;28;19953;-54
2022/03/27 12:11:06;;;;;;;3.95;2.13;;;;;;;26.38;21.29;100006.63;4991556;28;20113;-55
2022/03/27 12:13:51;;;;;;;3.33;1.85;;;;;;;26.74;21.44;100011.38;4991349;28;20507;-55
2022/03/27 12:16:37;;;;;;;3.22;2.03;;;;;;;27.21;21.32;100005.09;4991571;28;20065;-53
2022/03/27 12:19:22;;;;;;;3.70;2.08;;;;;;;27.12;18.95;99994.41;4991268;28;20548;-57
2022/03/27 12:22:07;;;;;;;3.95;2.03;;;;;;;27.23;20.24;99994.94;4991254;28;20717;-54
2022/03/27 12:24:51;;;;;;;3.47;2.03;;;;;;;28.22;18.71;99995.53;4976588;28;20046;-54
2022/03/27 12:30:40;;;;;;;2.92;1.95;;;;;;;26.61;20.88;99992.34;4992242;28;20062;-54
2022/03/27 12:33:27;;;;;;;3.95;2.00;;;;;;;28.62;18.21;99984.31;4992292;28;20497;-55
2022/03/27 12:36:13;;;;;;;3.60;2.22;;;;;;;27.26;20.28;99992.72;4991227;28;20109;-53
2022/03/27 12:38:59;;;;;;;3.00;1.77;;;;;;;28.39;18.07;99982.69;4994671;28;20050;-54
2022/03/27 12:41:43;;;;;;;4.68;2.25;;;;;;;25.48;19.68;99980.91;4993682;28;20489;-54
2022/03/27 12:44:50;;;;;;;2.50;1.70;;;;;;;25.48;22.10;99986.25;4994666;28;20520;-53
2022/03/27 12:47:46;;;;;;;4.30;2.13;;;;;;;26.11;20.71;99976.59;4994533;28;20133;-51
2022/03/27 12:50:35;;;;;;;3.20;1.60;;;;;;;28.01;20.49;99972.13;4979425;28;20046;-55
2022/03/27 12:53:20;;;;;;;3.13;1.75;;;;;;;27.24;18.90;99970.56;4994590;28;20122;-52
2022/03/27 12:56:05;;;;;;;2.38;1.63;;;;;;;27.94;19.49;99968.53;4993386;28;20100;-54
2022/03/27 12:58:51;;;;;;;3.92;1.90;;;;;;;28.07;17.23;99967.84;4994065;28;20042;-52
2022/03/27 13:01:36;;;;;;;4.32;2.28;;;;;;;27.05;19.27;99964.75;4993929;28;20453;-55
2022/03/27 13:04:20;;;;;;;2.72;1.80;;;;;;;25.28;18.81;99964.41;4979314;28;20104;-55
2022/03/27 13:07:05;;;;;;;3.75;1.75;;;;;;;23.40;21.63;99959.41;4994054;28;20445;-53
2022/03/27 13:09:53;;;;;;;2.63;1.40;;;;;;;26.17;20.45;99949.88;4979313;28;20042;-55